Time,TemperatureF,DewpointF,PressureIn,WindDirection,WindDirectionDegrees,WindSpeedMPH,WindSpeedGustMPH,Humidity,HourlyPrecipIn,Conditions,Clouds,dailyrainin,SolarRadiationWatts/m^2,SoftwareType,DateUTC
2013-03-08 00:00:00,35.3,12.8,30.03,WNW,292,2.0,11.0,39,0.00,,,0.00,0,WeatherCatV1.14B232,2013-03-08 07:00:00,
2013-03-08 00:05:00,35.3,12.8,30.03,WNW,292,2.0,11.0,39,0.00,,,0.00,0,WeatherCatV1.14B232,2013-03-08 07:05:00,
2013-03-08 00:10:00,34.7,13.4,30.03,WNW,292,5.0,13.0,41,0.00,,,0.00,0,WeatherCatV1.14B232,2013-03-08 07:10:00,
2013-03-08 00:15:00,34.7,13.4,30.03,WNW,292,5.0,13.0,41,0.00,,,0.00,0,WeatherCatV1.14B232,2013-03-08 07:15:00,
2013-03-08 00:20:00,34.7,13.4,30.03,WNW,292,5.0,13.0,41,0.00,,,0.00,0,WeatherCatV1.14B232,2013-03-08 07:20:00,
2013-03-08 00:25:00,35.0,13.7,30.02,WNW,292,7.0,18.0,41,0.00,,,0.00,0,WeatherCatV1.14B232,2013-03-08 07:25:00,
2013-03-08 00:30:00,35.0,13.7,30.02,WNW,292,7.0,18.0,41,0.00,,,0.00,0,WeatherCatV1.14B232,2013-03-08 07:30:00,
2013-03-08 00:35:00,35.0,13.7,30.02,WNW,292,7.0,18.0,41,0.00,,,0.00,0,WeatherCatV1.14B232,2013-03-08 07:35:00,
2013-03-08 00:40:00,34.1,14.5,30.02,West,270,3.0,12.0,44,0.00,,,0.00,0,WeatherCatV1.14B232,2013-03-08 07:40:00,
2013-03-08 00:45:00,34.1,14.5,30.02,West,270,3.0,12.0,44,0.00,,,0.00,0,WeatherCatV1.14B232,2013-03-08 07:45:00,
2013-03-08 00:50:00,34.1,14.5,30.02,West,270,3.0,12.0,44,0.00,,,0.00,0,WeatherCatV1.14B232,2013-03-08 07:50:00,
2013-03-08 00:55:00,34.7,14.5,30.02,NW,315,7.0,14.0,43,0.00,,,0.00,0,WeatherCatV1.14B232,2013-03-08 07:55:00,
2013-03-08 01:00:00,34.7,14.5,30.02,NW,315,7.0,14.0,43,0.00,,,0.00,0,WeatherCatV1.14B232,2013-03-08 08:00:00,
2013-03-08 01:05:00,34.7,14.5,30.02,NW,315,7.0,14.0,43,0.00,,,0.00,0,WeatherCatV1.14B232,2013-03-08 08:05:00,
2013-03-08 01:10:00,33.2,14.7,30.02,NNW,338,2.0,8.0,46,0.00,,,0.00,0,WeatherCatV1.14B232,2013-03-08 08:10:00,
2013-03-08 01:15:00,33.2,14.7,30.02,NNW,338,2.0,8.0,46,0.00,,,0.00,0,WeatherCatV1.14B232,2013-03-08 08:15:00,
2013-03-08 01:20:00,33.2,14.7,30.02,NNW,338,2.0,8.0,46,0.00,,,0.00,0,WeatherCatV1.14B232,2013-03-08 08:20:00,
2013-03-08 01:25:00,30.3,15.2,30.01,NW,315,2.0,7.0,53,0.00,,,0.00,0,WeatherCatV1.14B232,2013-03-08 08:25:00,
2013-03-08 01:30:00,30.3,15.2,30.01,NW,315,2.0,7.0,53,0.00,,,0.00,0,WeatherCatV1.14B232,2013-03-08 08:30:00,
2013-03-08 01:35:00,30.3,15.2,30.01,NW,315,2.0,7.0,53,0.00,,,0.00,0,WeatherCatV1.14B232,2013-03-08 08:35:00,
2013-03-08 01:40:00,29.8,14.3,30.02,NW,315,1.0,5.0,52,0.00,,,0.00,0,WeatherCatV1.14B232,2013-03-08 08:40:00,
2013-03-08 01:45:00,29.8,14.3,30.02,NW,315,1.0,5.0,52,0.00,,,0.00,0,WeatherCatV1.14B232,2013-03-08 08:45:00,
2013-03-08 01:50:00,29.1,15.0,30.01,NW,315,1.0,5.0,55,0.00,,,0.00,0,WeatherCatV1.14B232,2013-03-08 08:50:00,
2013-03-08 01:55:00,29.1,15.0,30.01,NW,315,1.0,5.0,55,0.00,,,0.00,0,WeatherCatV1.14B232,2013-03-08 08:55:00,
2013-03-08 02:00:00,29.1,15.0,30.01,NW,315,1.0,5.0,55,0.00,,,0.00,0,WeatherCatV1.14B232,2013-03-08 09:00:00,
2013-03-08 02:05:00,28.4,15.1,30.01,NW,315,2.0,5.0,57,0.00,,,0.00,0,WeatherCatV1.14B232,2013-03-08 09:05:00,
2013-03-08 02:10:00,28.4,15.1,30.01,NW,315,2.0,5.0,57,0.00,,,0.00,0,WeatherCatV1.14B232,2013-03-08 09:10:00,
2013-03-08 02:15:00,28.4,15.1,30.01,NW,315,2.0,5.0,57,0.00,,,0.00,0,WeatherCatV1.14B232,2013-03-08 09:15:00,
2013-03-08 02:20:00,28.4,14.7,30.01,NW,315,0.0,3.0,56,0.00,,,0.00,0,WeatherCatV1.14B232,2013-03-08 09:20:00,
2013-03-08 02:25:00,28.4,14.7,30.01,NW,315,0.0,3.0,56,0.00,,,0.00,0,WeatherCatV1.14B232,2013-03-08 09:25:00,
2013-03-08 02:30:00,28.4,14.7,30.01,NW,315,0.0,3.0,56,0.00,,,0.00,0,WeatherCatV1.14B232,2013-03-08 09:30:00,
2013-03-08 02:35:00,28.4,14.7,30.01,NW,315,0.0,3.0,56,0.00,,,0.00,0,WeatherCatV1.14B232,2013-03-08 09:35:00,
2013-03-08 02:40:00,27.5,15.1,30.00,NW,315,0.0,2.0,59,0.00,,,0.00,0,WeatherCatV1.14B232,2013-03-08 09:40:00,
2013-03-08 02:45:00,27.5,15.1,30.00,NW,315,0.0,2.0,59,0.00,,,0.00,0,WeatherCatV1.14B232,2013-03-08 09:45:00,
2013-03-08 02:50:00,27.5,15.1,30.00,NW,315,0.0,2.0,59,0.00,,,0.00,0,WeatherCatV1.14B232,2013-03-08 09:50:00,
2013-03-08 02:55:00,27.2,15.2,30.00,NW,315,0.0,0.0,60,0.00,,,0.00,0,WeatherCatV1.14B232,2013-03-08 09:55:00,
2013-03-08 03:00:00,27.2,15.2,30.00,NW,315,0.0,0.0,60,0.00,,,0.00,0,WeatherCatV1.14B232,2013-03-08 10:00:00,
2013-03-08 03:05:00,27.2,15.2,30.00,NW,315,0.0,0.0,60,0.00,,,0.00,0,WeatherCatV1.14B232,2013-03-08 10:05:00,
2013-03-08 03:10:00,27.0,14.6,30.00,NW,315,1.0,3.0,59,0.00,,,0.00,0,WeatherCatV1.14B232,2013-03-08 10:10:00,
2013-03-08 03:15:00,27.0,14.6,30.00,NW,315,1.0,3.0,59,0.00,,,0.00,0,WeatherCatV1.14B232,2013-03-08 10:15:00,
2013-03-08 03:20:00,27.0,14.6,30.00,NW,315,1.0,3.0,59,0.00,,,0.00,0,WeatherCatV1.14B232,2013-03-08 10:20:00,
2013-03-08 03:25:00,27.5,14.7,30.00,NW,315,0.0,3.0,58,0.00,,,0.00,0,WeatherCatV1.14B232,2013-03-08 10:25:00,
2013-03-08 03:30:00,27.5,14.7,30.00,NW,315,0.0,3.0,58,0.00,,,0.00,0,WeatherCatV1.14B232,2013-03-08 10:30:00,
2013-03-08 03:35:00,27.5,14.7,30.00,NW,315,0.0,3.0,58,0.00,,,0.00,0,WeatherCatV1.14B232,2013-03-08 10:35:00,
2013-03-08 03:40:00,27.3,14.5,30.00,NW,315,1.0,5.0,58,0.00,,,0.00,0,WeatherCatV1.14B232,2013-03-08 10:40:00,
2013-03-08 03:45:00,27.3,14.5,30.00,NW,315,1.0,5.0,58,0.00,,,0.00,0,WeatherCatV1.14B232,2013-03-08 10:45:00,
2013-03-08 03:50:00,27.3,14.5,30.00,NW,315,1.0,5.0,58,0.00,,,0.00,0,WeatherCatV1.14B232,2013-03-08 10:50:00,
2013-03-08 03:55:00,26.9,14.5,29.99,NW,315,0.0,3.0,59,0.00,,,0.00,0,WeatherCatV1.14B232,2013-03-08 10:55:00,
2013-03-08 04:00:00,26.9,14.5,29.99,NW,315,0.0,3.0,59,0.00,,,0.00,0,WeatherCatV1.14B232,2013-03-08 11:00:00,
2013-03-08 04:05:00,26.9,14.5,29.99,NW,315,0.0,3.0,59,0.00,,,0.00,0,WeatherCatV1.14B232,2013-03-08 11:05:00,
2013-03-08 04:10:00,26.3,14.3,30.00,NW,315,0.0,0.0,60,0.00,,,0.00,0,WeatherCatV1.14B232,2013-03-08 11:10:00,
2013-03-08 04:15:00,26.3,14.3,30.00,NW,315,0.0,0.0,60,0.00,,,0.00,0,WeatherCatV1.14B232,2013-03-08 11:15:00,
2013-03-08 04:20:00,26.3,14.3,30.00,NW,315,0.0,0.0,60,0.00,,,0.00,0,WeatherCatV1.14B232,2013-03-08 11:20:00,
2013-03-08 04:25:00,26.0,14.4,30.00,NW,315,0.0,2.0,61,0.00,,,0.00,0,WeatherCatV1.14B232,2013-03-08 11:25:00,
2013-03-08 04:30:00,26.0,14.4,30.00,NW,315,0.0,2.0,61,0.00,,,0.00,0,WeatherCatV1.14B232,2013-03-08 11:30:00,
2013-03-08 04:35:00,26.0,14.4,30.00,NW,315,0.0,2.0,61,0.00,,,0.00,0,WeatherCatV1.14B232,2013-03-08 11:35:00,
2013-03-08 04:40:00,25.7,14.5,30.00,NW,315,2.0,6.0,62,0.00,,,0.00,0,WeatherCatV1.14B232,2013-03-08 11:40:00,
2013-03-08 04:45:00,25.7,14.5,30.00,NW,315,2.0,6.0,62,0.00,,,0.00,0,WeatherCatV1.14B232,2013-03-08 11:45:00,
2013-03-08 04:57:00,25.7,14.5,30.00,NW,315,2.0,6.0,62,0.00,,,0.00,0,WeatherCatV1.14B232,2013-03-08 11:57:00,
2013-03-08 05:02:00,29.8,14.3,30.00,WNW,301,4.0,6.0,52,0.00,,,0.00,0,WeatherCatV1.14B232,2013-03-08 12:02:00,
2013-03-08 05:07:00,29.0,14.5,30.00,NW,315,2.0,8.0,54,0.00,,,0.00,0,WeatherCatV1.14B232,2013-03-08 12:07:00,
2013-03-08 05:12:00,29.0,14.0,30.00,NW,308,1.0,6.0,53,0.00,,,0.00,0,WeatherCatV1.14B232,2013-03-08 12:12:00,
2013-03-08 05:17:00,28.8,14.3,29.99,NW,308,0.0,0.0,54,0.00,,,0.00,0,WeatherCatV1.14B232,2013-03-08 12:17:00,
2013-03-08 05:22:00,28.5,14.0,29.99,NW,305,5.0,10.0,54,0.00,,,0.00,0,WeatherCatV1.14B232,2013-03-08 12:22:00,
2013-03-08 05:27:00,28.7,13.8,29.99,NW,305,3.0,4.0,53,0.00,,,0.00,0,WeatherCatV1.14B232,2013-03-08 12:27:00,
2013-03-08 05:32:00,28.2,14.5,29.99,NW,305,0.0,0.0,56,0.00,,,0.00,0,WeatherCatV1.14B232,2013-03-08 12:32:00,
2013-03-08 05:37:00,27.8,14.2,29.99,NW,305,3.0,5.0,56,0.00,,,0.00,0,WeatherCatV1.14B232,2013-03-08 12:37:00,
2013-03-08 05:42:00,27.0,14.6,29.99,NW,305,0.0,5.0,59,0.00,,,0.00,0,WeatherCatV1.14B232,2013-03-08 12:42:00,
2013-03-08 05:47:00,26.6,13.8,29.99,WSW,253,0.0,4.0,58,0.00,,,0.00,0,WeatherCatV1.14B232,2013-03-08 12:47:00,
2013-03-08 05:52:00,27.0,14.2,29.99,WSW,253,0.0,2.0,58,0.00,,,0.00,0,WeatherCatV1.14B232,2013-03-08 12:52:00,
2013-03-08 05:57:00,27.0,13.8,29.99,WSW,253,0.0,0.0,57,0.00,,,0.00,0,WeatherCatV1.14B232,2013-03-08 12:57:00,
2013-03-08 06:02:00,27.0,14.6,30.00,WSW,253,0.0,0.0,59,0.00,,,0.00,0,WeatherCatV1.14B232,2013-03-08 13:02:00,
2013-03-08 06:07:00,26.6,14.6,30.00,WSW,253,0.0,0.0,60,0.00,,,0.00,0,WeatherCatV1.14B232,2013-03-08 13:07:00,
2013-03-08 06:12:00,26.3,14.3,30.00,WSW,253,3.0,3.0,60,0.00,,,0.00,0,WeatherCatV1.14B232,2013-03-08 13:12:00,
2013-03-08 06:17:00,26.1,14.5,30.00,WSW,254,0.0,1.0,61,0.00,,,0.00,0,WeatherCatV1.14B232,2013-03-08 13:17:00,
2013-03-08 06:22:00,26.1,14.1,30.00,WSW,254,0.0,0.0,60,0.00,,,0.00,5,WeatherCatV1.14B232,2013-03-08 13:22:00,
2013-03-08 06:27:00,26.1,13.8,30.00,WSW,254,0.0,3.0,59,0.00,,,0.00,9,WeatherCatV1.14B232,2013-03-08 13:27:00,
2013-03-08 06:32:00,26.3,13.9,29.99,WSW,253,0.0,0.0,59,0.00,,,0.00,16,WeatherCatV1.14B232,2013-03-08 13:32:00,
2013-03-08 06:37:00,26.4,14.0,29.99,WSW,253,0.0,2.0,59,0.00,,,0.00,19,WeatherCatV1.14B232,2013-03-08 13:37:00,
2013-03-08 06:42:00,26.4,14.0,29.99,WSW,253,0.0,0.0,59,0.00,,,0.00,32,WeatherCatV1.14B232,2013-03-08 13:42:00,
2013-03-08 06:47:00,26.4,15.2,29.99,WSW,254,0.0,0.0,62,0.00,,,0.00,30,WeatherCatV1.14B232,2013-03-08 13:47:00,
2013-03-08 06:52:00,26.3,14.7,29.99,WSW,253,0.0,0.0,61,0.00,,,0.00,33,WeatherCatV1.14B232,2013-03-08 13:52:00,
2013-03-08 06:57:00,26.3,14.7,29.99,WSW,253,3.0,3.0,61,0.00,,,0.00,32,WeatherCatV1.14B232,2013-03-08 13:57:00,
2013-03-08 07:02:00,26.3,15.1,29.99,WSW,253,0.0,0.0,62,0.00,,,0.00,37,WeatherCatV1.14B232,2013-03-08 14:02:00,
2013-03-08 07:07:00,26.6,15.4,29.99,WSW,253,0.0,0.0,62,0.00,,,0.00,72,WeatherCatV1.14B232,2013-03-08 14:07:00,
2013-03-08 07:12:00,27.2,14.8,29.99,WSW,253,0.0,0.0,59,0.00,,,0.00,84,WeatherCatV1.14B232,2013-03-08 14:12:00,
2013-03-08 07:17:00,27.8,15.4,29.99,WSW,253,0.0,3.0,59,0.00,,,0.00,158,WeatherCatV1.14B232,2013-03-08 14:17:00,
2013-03-08 07:22:00,28.4,16.3,29.99,WSW,253,0.0,0.0,60,0.00,,,0.00,160,WeatherCatV1.14B232,2013-03-08 14:22:00,
2013-03-08 07:27:00,29.1,16.6,29.99,WSW,253,0.0,0.0,59,0.00,,,0.00,206,WeatherCatV1.14B232,2013-03-08 14:27:00,
2013-03-08 07:32:00,30.1,15.5,29.99,WSW,253,0.0,0.0,54,0.00,,,0.00,127,WeatherCatV1.14B232,2013-03-08 14:32:00,
2013-03-08 07:37:00,30.7,15.2,29.99,WSW,253,0.0,0.0,52,0.00,,,0.00,127,WeatherCatV1.14B232,2013-03-08 14:37:00,
2013-03-08 07:42:00,31.0,16.8,29.99,WSW,253,0.0,0.0,55,0.00,,,0.00,132,WeatherCatV1.14B232,2013-03-08 14:42:00,
2013-03-08 07:47:00,31.5,16.4,29.99,WSW,253,0.0,0.0,53,0.00,,,0.00,144,WeatherCatV1.14B232,2013-03-08 14:47:00,
2013-03-08 07:52:00,32.2,16.1,29.99,WSW,253,0.0,0.0,51,0.00,,,0.00,197,WeatherCatV1.14B232,2013-03-08 14:52:00,
2013-03-08 07:57:00,32.8,16.2,29.99,WSW,253,0.0,0.0,50,0.00,,,0.00,178,WeatherCatV1.14B232,2013-03-08 14:57:00,
2013-03-08 08:02:00,33.5,18.2,29.99,WSW,253,0.0,0.0,53,0.00,,,0.00,327,WeatherCatV1.14B232,2013-03-08 15:02:00,
2013-03-08 08:07:00,34.6,15.5,29.99,WSW,253,0.0,0.0,45,0.00,,,0.00,243,WeatherCatV1.14B232,2013-03-08 15:07:00,
2013-03-08 08:12:00,35.6,16.4,29.99,WSW,253,0.0,0.0,45,0.00,,,0.00,243,WeatherCatV1.14B232,2013-03-08 15:12:00,
2013-03-08 08:17:00,36.9,16.0,29.99,WSW,253,0.0,0.0,42,0.00,,,0.00,225,WeatherCatV1.14B232,2013-03-08 15:17:00,
2013-03-08 08:22:00,37.3,15.2,29.99,WSW,253,0.0,0.0,40,0.00,,,0.00,195,WeatherCatV1.14B232,2013-03-08 15:22:00,
2013-03-08 08:27:00,37.8,16.2,29.99,WSW,253,0.0,0.0,41,0.00,,,0.00,318,WeatherCatV1.14B232,2013-03-08 15:27:00,
2013-03-08 08:32:00,38.3,16.7,29.98,WSW,253,0.0,0.0,41,0.00,,,0.00,308,WeatherCatV1.14B232,2013-03-08 15:32:00,
2013-03-08 08:37:00,38.8,16.6,29.98,WSW,253,0.0,0.0,40,0.00,,,0.00,179,WeatherCatV1.14B232,2013-03-08 15:37:00,
2013-03-08 08:42:00,38.9,16.7,29.98,WSW,253,0.0,0.0,40,0.00,,,0.00,146,WeatherCatV1.14B232,2013-03-08 15:42:00,
2013-03-08 08:47:00,38.9,16.7,29.98,WSW,247,0.0,6.0,40,0.00,,,0.00,111,WeatherCatV1.14B232,2013-03-08 15:47:00,
2013-03-08 08:52:00,39.1,16.8,29.98,WSW,247,0.0,0.0,40,0.00,,,0.00,206,WeatherCatV1.14B232,2013-03-08 15:52:00,
2013-03-08 08:57:00,39.3,17.6,29.98,East,100,6.0,8.0,41,0.00,,,0.00,211,WeatherCatV1.14B232,2013-03-08 15:57:00,
2013-03-08 09:02:00,40.1,18.3,29.97,East,99,5.0,8.0,41,0.00,,,0.00,438,WeatherCatV1.14B232,2013-03-08 16:02:00,
2013-03-08 09:07:00,40.6,18.2,29.97,ESE,107,8.0,11.0,40,0.00,,,0.00,317,WeatherCatV1.14B232,2013-03-08 16:07:00,
2013-03-08 09:12:00,40.9,18.5,29.97,ESE,103,1.0,5.0,40,0.00,,,0.00,422,WeatherCatV1.14B232,2013-03-08 16:12:00,
2013-03-08 09:17:00,41.6,18.5,29.97,ESE,120,8.0,11.0,39,0.00,,,0.00,551,WeatherCatV1.14B232,2013-03-08 16:17:00,
2013-03-08 09:22:00,41.6,17.9,29.97,ESE,114,3.0,13.0,38,0.00,,,0.00,551,WeatherCatV1.14B232,2013-03-08 16:22:00,
2013-03-08 09:27:00,42.2,17.8,29.97,ESE,103,8.0,11.0,37,0.00,,,0.00,635,WeatherCatV1.14B232,2013-03-08 16:27:00,
2013-03-08 09:32:00,41.9,18.2,29.96,ESE,104,8.0,11.0,38,0.00,,,0.00,220,WeatherCatV1.14B232,2013-03-08 16:32:00,
2013-03-08 09:37:00,42.9,19.1,29.96,ESE,117,5.0,7.0,38,0.00,,,0.00,686,WeatherCatV1.14B232,2013-03-08 16:37:00,
2013-03-08 09:42:00,43.8,18.6,29.96,East,92,6.0,12.0,36,0.00,,,0.00,591,WeatherCatV1.14B232,2013-03-08 16:42:00,
2013-03-08 09:47:00,44.1,18.2,29.96,ESE,117,0.0,13.0,35,0.00,,,0.00,560,WeatherCatV1.14B232,2013-03-08 16:47:00,
2013-03-08 09:52:00,44.8,18.8,29.96,ESE,106,6.0,10.0,35,0.00,,,0.00,695,WeatherCatV1.14B232,2013-03-08 16:52:00,
2013-03-08 09:57:00,45.2,17.8,29.96,East,96,5.0,8.0,33,0.00,,,0.00,686,WeatherCatV1.14B232,2013-03-08 16:57:00,
2013-03-08 10:02:00,45.8,16.9,29.95,ESE,119,8.0,13.0,31,0.00,,,0.00,748,WeatherCatV1.14B232,2013-03-08 17:02:00,
2013-03-08 10:07:00,45.8,16.9,29.95,East,99,6.0,11.0,31,0.00,,,0.00,788,WeatherCatV1.14B232,2013-03-08 17:07:00,
2013-03-08 10:12:00,46.4,16.7,29.95,ESE,113,7.0,12.0,30,0.00,,,0.00,686,WeatherCatV1.14B232,2013-03-08 17:12:00,
2013-03-08 10:17:00,46.2,16.5,29.94,ESE,103,9.0,13.0,30,0.00,,,0.00,788,WeatherCatV1.14B232,2013-03-08 17:17:00,
2013-03-08 10:22:00,46.5,16.8,29.94,ESE,112,11.0,12.0,30,0.00,,,0.00,862,WeatherCatV1.14B232,2013-03-08 17:22:00,
2013-03-08 10:27:00,47.3,15.9,29.94,SE,138,8.0,12.0,28,0.00,,,0.00,836,WeatherCatV1.14B232,2013-03-08 17:27:00,
2013-03-08 10:32:00,46.5,15.2,29.94,SE,130,12.0,13.0,28,0.00,,,0.00,734,WeatherCatV1.14B232,2013-03-08 17:32:00,
2013-03-08 10:37:00,47.3,15.9,29.94,ESE,112,2.0,10.0,28,0.00,,,0.00,915,WeatherCatV1.14B232,2013-03-08 17:37:00,
2013-03-08 10:42:00,47.7,16.2,29.94,ESE,120,4.0,14.0,28,0.00,,,0.00,809,WeatherCatV1.14B232,2013-03-08 17:42:00,
2013-03-08 10:47:00,48.0,16.5,29.92,SE,133,10.0,18.0,28,0.00,,,0.00,850,WeatherCatV1.14B232,2013-03-08 17:47:00,
2013-03-08 10:52:00,48.0,16.5,29.92,SE,127,11.0,14.0,28,0.00,,,0.00,806,WeatherCatV1.14B232,2013-03-08 17:52:00,
2013-03-08 10:57:00,47.6,15.3,29.92,ESE,119,10.0,17.0,27,0.00,,,0.00,776,WeatherCatV1.14B232,2013-03-08 17:57:00,
2013-03-08 11:02:00,48.3,15.9,29.92,ESE,119,14.0,14.0,27,0.00,,,0.00,864,WeatherCatV1.14B232,2013-03-08 18:02:00,
2013-03-08 11:07:00,48.2,16.6,29.92,ESE,107,7.0,18.0,28,0.00,,,0.00,864,WeatherCatV1.14B232,2013-03-08 18:07:00,
2013-03-08 11:12:00,46.8,15.4,29.92,ESE,116,16.0,20.0,28,0.00,,,0.00,394,WeatherCatV1.14B232,2013-03-08 18:12:00,
2013-03-08 11:17:00,46.2,15.7,29.91,ESE,110,10.0,18.0,29,0.00,,,0.00,572,WeatherCatV1.14B232,2013-03-08 18:17:00,
2013-03-08 11:22:00,46.7,15.3,29.91,ESE,107,8.0,19.0,28,0.00,,,0.00,524,WeatherCatV1.14B232,2013-03-08 18:22:00,
2013-03-08 11:27:00,46.5,15.2,29.91,SE,140,16.0,18.0,28,0.00,,,0.00,435,WeatherCatV1.14B232,2013-03-08 18:27:00,
2013-03-08 11:32:00,46.4,15.9,29.91,ESE,119,14.0,16.0,29,0.00,,,0.00,435,WeatherCatV1.14B232,2013-03-08 18:32:00,
2013-03-08 11:37:00,46.0,15.5,29.91,ESE,123,12.0,17.0,29,0.00,,,0.00,377,WeatherCatV1.14B232,2013-03-08 18:37:00,
2013-03-08 11:42:00,46.5,16.0,29.91,SE,138,12.0,13.0,29,0.00,,,0.00,377,WeatherCatV1.14B232,2013-03-08 18:42:00,
2013-03-08 11:47:00,47.1,15.7,29.91,ESE,106,7.0,11.0,28,0.00,,,0.00,790,WeatherCatV1.14B232,2013-03-08 18:47:00,
2013-03-08 11:52:00,47.4,16.0,29.91,ESE,119,8.0,13.0,28,0.00,,,0.00,649,WeatherCatV1.14B232,2013-03-08 18:52:00,
2013-03-08 11:57:00,46.8,16.2,29.91,ESE,120,11.0,18.0,29,0.00,,,0.00,422,WeatherCatV1.14B232,2013-03-08 18:57:00,
2013-03-08 12:02:00,46.8,16.2,29.90,SSE,148,16.0,18.0,29,0.00,,,0.00,866,WeatherCatV1.14B232,2013-03-08 19:02:00,
2013-03-08 12:07:00,47.4,16.0,29.90,SE,137,13.0,17.0,28,0.00,,,0.00,808,WeatherCatV1.14B232,2013-03-08 19:07:00,
2013-03-08 12:12:00,47.6,15.3,29.90,SE,138,11.0,17.0,27,0.00,,,0.00,783,WeatherCatV1.14B232,2013-03-08 19:12:00,
2013-03-08 12:17:00,47.3,15.0,29.89,ESE,120,6.0,17.0,27,0.00,,,0.00,783,WeatherCatV1.14B232,2013-03-08 19:17:00,
2013-03-08 12:22:00,48.3,14.1,29.89,SE,127,7.0,12.0,25,0.00,,,0.00,565,WeatherCatV1.14B232,2013-03-08 19:22:00,
2013-03-08 12:27:00,48.0,13.9,29.89,ESE,116,18.0,20.0,25,0.00,,,0.00,781,WeatherCatV1.14B232,2013-03-08 19:27:00,
2013-03-08 12:32:00,47.9,13.8,29.89,ESE,117,7.0,15.0,25,0.00,,,0.00,774,WeatherCatV1.14B232,2013-03-08 19:32:00,
2013-03-08 12:37:00,47.7,14.5,29.89,ESE,119,16.0,18.0,26,0.00,,,0.00,577,WeatherCatV1.14B232,2013-03-08 19:37:00,
2013-03-08 12:42:00,47.1,14.0,29.89,SE,124,8.0,17.0,26,0.00,,,0.00,510,WeatherCatV1.14B232,2013-03-08 19:42:00,
2013-03-08 12:47:00,46.8,13.7,29.88,ESE,107,8.0,18.0,26,0.00,,,0.00,447,WeatherCatV1.14B232,2013-03-08 19:47:00,
2013-03-08 12:52:00,46.5,15.2,29.88,ESE,119,16.0,24.0,28,0.00,,,0.00,394,WeatherCatV1.14B232,2013-03-08 19:52:00,
2013-03-08 12:57:00,46.1,14.8,29.88,SE,124,7.0,18.0,28,0.00,,,0.00,443,WeatherCatV1.14B232,2013-03-08 19:57:00,
2013-03-08 13:02:00,46.4,15.1,29.87,SE,133,11.0,18.0,28,0.00,,,0.00,449,WeatherCatV1.14B232,2013-03-08 20:02:00,
2013-03-08 13:07:00,46.8,14.6,29.87,SSE,152,0.0,18.0,27,0.00,,,0.00,558,WeatherCatV1.14B232,2013-03-08 20:07:00,
2013-03-08 13:12:00,47.3,15.0,29.87,ESE,112,5.0,13.0,27,0.00,,,0.00,428,WeatherCatV1.14B232,2013-03-08 20:12:00,
2013-03-08 13:17:00,47.1,13.1,29.86,SE,144,5.0,16.0,25,0.00,,,0.00,334,WeatherCatV1.14B232,2013-03-08 20:17:00,
2013-03-08 13:22:00,46.7,13.7,29.86,ESE,116,14.0,19.0,26,0.00,,,0.00,282,WeatherCatV1.14B232,2013-03-08 20:22:00,
2013-03-08 13:27:00,46.4,13.4,29.86,SSE,155,3.0,10.0,26,0.00,,,0.00,301,WeatherCatV1.14B232,2013-03-08 20:27:00,
2013-03-08 13:32:00,46.4,13.4,29.85,SE,138,9.0,12.0,26,0.00,,,0.00,311,WeatherCatV1.14B232,2013-03-08 20:32:00,
2013-03-08 13:37:00,46.7,13.7,29.85,South,179,10.0,10.0,26,0.00,,,0.00,287,WeatherCatV1.14B232,2013-03-08 20:37:00,
2013-03-08 13:42:00,46.4,14.3,29.85,South,171,15.0,16.0,27,0.00,,,0.00,297,WeatherCatV1.14B232,2013-03-08 20:42:00,
2013-03-08 13:47:00,46.2,14.1,29.85,SSW,205,12.0,12.0,27,0.00,,,0.00,304,WeatherCatV1.14B232,2013-03-08 20:47:00,
2013-03-08 13:52:00,46.5,14.3,29.85,SW,217,5.0,7.0,27,0.00,,,0.00,304,WeatherCatV1.14B232,2013-03-08 20:52:00,
2013-03-08 13:57:00,46.5,14.3,29.85,SSE,164,11.0,11.0,27,0.00,,,0.00,294,WeatherCatV1.14B232,2013-03-08 20:57:00,
2013-03-08 14:02:00,46.4,14.3,29.85,West,271,11.0,19.0,27,0.00,,,0.00,280,WeatherCatV1.14B232,2013-03-08 21:02:00,
2013-03-08 14:07:00,46.1,14.8,29.85,West,271,7.0,12.0,28,0.00,,,0.00,283,WeatherCatV1.14B232,2013-03-08 21:07:00,
2013-03-08 14:12:00,46.0,13.9,29.85,East,85,8.0,9.0,27,0.00,,,0.00,283,WeatherCatV1.14B232,2013-03-08 21:12:00,
2013-03-08 14:17:00,46.1,14.8,29.85,East,99,1.0,6.0,28,0.00,,,0.00,262,WeatherCatV1.14B232,2013-03-08 21:17:00,
2013-03-08 14:22:00,45.8,16.1,29.85,South,178,6.0,13.0,30,0.00,,,0.00,257,WeatherCatV1.14B232,2013-03-08 21:22:00,
2013-03-08 14:27:00,45.2,15.6,29.85,ESE,113,11.0,14.0,30,0.00,,,0.00,234,WeatherCatV1.14B232,2013-03-08 21:27:00,
2013-03-08 14:32:00,44.9,16.1,29.84,ESE,116,12.0,12.0,31,0.00,,,0.00,215,WeatherCatV1.14B232,2013-03-08 21:32:00,
2013-03-08 14:37:00,44.8,16.0,29.84,ESE,109,2.0,13.0,31,0.00,,,0.00,185,WeatherCatV1.14B232,2013-03-08 21:37:00,
2013-03-08 14:42:00,44.8,15.3,29.84,SSE,157,0.0,7.0,30,0.00,,,0.00,223,WeatherCatV1.14B232,2013-03-08 21:42:00,
2013-03-08 14:47:00,45.1,16.3,29.84,SSE,152,5.0,7.0,31,0.00,,,0.00,333,WeatherCatV1.14B232,2013-03-08 21:47:00,
2013-03-08 14:52:00,45.8,15.4,29.84,SE,140,6.0,6.0,29,0.00,,,0.00,410,WeatherCatV1.14B232,2013-03-08 21:52:00,
2013-03-08 14:57:00,46.1,14.8,29.84,East,100,3.0,5.0,28,0.00,,,0.00,287,WeatherCatV1.14B232,2013-03-08 21:57:00,
2013-03-08 15:02:00,46.1,14.0,29.83,East,97,0.0,0.0,27,0.00,,,0.00,280,WeatherCatV1.14B232,2013-03-08 22:02:00,
2013-03-08 15:07:00,46.4,15.1,29.83,NNE,31,6.0,7.0,28,0.00,,,0.00,310,WeatherCatV1.14B232,2013-03-08 22:07:00,
2013-03-08 15:12:00,46.4,14.3,29.83,NNE,28,0.0,0.0,27,0.00,,,0.00,227,WeatherCatV1.14B232,2013-03-08 22:12:00,
2013-03-08 15:17:00,46.7,15.3,29.83,NNE,28,0.0,2.0,28,0.00,,,0.00,215,WeatherCatV1.14B232,2013-03-08 22:17:00,
2013-03-08 15:22:00,46.8,14.6,29.83,NNE,28,0.0,0.0,27,0.00,,,0.00,211,WeatherCatV1.14B232,2013-03-08 22:22:00,
2013-03-08 15:27:00,47.1,15.7,29.83,NNE,28,5.0,6.0,28,0.00,,,0.00,206,WeatherCatV1.14B232,2013-03-08 22:27:00,
2013-03-08 15:32:00,47.0,13.9,29.82,NNE,28,0.0,4.0,26,0.00,,,0.00,181,WeatherCatV1.14B232,2013-03-08 22:32:00,
2013-03-08 15:37:00,47.0,13.9,29.82,NNE,28,0.0,0.0,26,0.00,,,0.00,144,WeatherCatV1.14B232,2013-03-08 22:37:00,
2013-03-08 15:42:00,46.4,14.3,29.82,SSE,148,10.0,14.0,27,0.00,,,0.00,91,WeatherCatV1.14B232,2013-03-08 22:42:00,
2013-03-08 15:47:00,46.0,14.7,29.82,ESE,112,14.0,14.0,28,0.00,,,0.00,77,WeatherCatV1.14B232,2013-03-08 22:47:00,
2013-03-08 15:52:00,45.4,14.2,29.82,ESE,120,13.0,13.0,28,0.00,,,0.00,84,WeatherCatV1.14B232,2013-03-08 22:52:00,
2013-03-08 15:57:00,45.1,14.0,29.82,SSE,160,3.0,13.0,28,0.00,,,0.00,114,WeatherCatV1.14B232,2013-03-08 22:57:00,
2013-03-08 16:02:00,45.1,14.0,29.80,East,100,9.0,12.0,28,0.00,,,0.00,127,WeatherCatV1.14B232,2013-03-08 23:02:00,
2013-03-08 16:07:00,45.2,14.1,29.80,SE,136,6.0,6.0,28,0.00,,,0.00,134,WeatherCatV1.14B232,2013-03-08 23:07:00,
2013-03-08 16:12:00,45.2,14.1,29.80,SE,126,6.0,12.0,28,0.00,,,0.00,120,WeatherCatV1.14B232,2013-03-08 23:12:00,
2013-03-08 16:17:00,44.6,16.6,29.80,SE,131,8.0,14.0,32,0.00,,,0.00,91,WeatherCatV1.14B232,2013-03-08 23:17:00,
2013-03-08 16:22:00,44.2,16.9,29.80,SE,138,7.0,14.0,33,0.00,,,0.00,107,WeatherCatV1.14B232,2013-03-08 23:22:00,
2013-03-08 16:27:00,44.1,16.9,29.80,SE,143,11.0,16.0,33,0.00,,,0.00,79,WeatherCatV1.14B232,2013-03-08 23:27:00,
2013-03-08 16:32:00,43.9,17.4,29.81,SE,137,8.0,10.0,34,0.00,,,0.00,51,WeatherCatV1.14B232,2013-03-08 23:32:00,
2013-03-08 16:37:00,43.5,17.7,29.81,SSE,161,8.0,12.0,35,0.00,,,0.00,30,WeatherCatV1.14B232,2013-03-08 23:37:00,
2013-03-08 16:42:00,43.2,18.1,29.81,South,174,5.0,18.0,36,0.00,,,0.00,25,WeatherCatV1.14B232,2013-03-08 23:42:00,
2013-03-08 16:47:00,43.1,18.0,29.80,South,181,9.0,17.0,36,0.00,,,0.00,23,WeatherCatV1.14B232,2013-03-08 23:47:00,
2013-03-08 16:52:00,42.9,17.8,29.80,South,172,9.0,13.0,36,0.00,,,0.00,21,WeatherCatV1.14B232,2013-03-08 23:52:00,
2013-03-08 16:57:00,42.1,21.2,29.80,SSE,150,11.0,20.0,43,0.00,,,0.00,26,WeatherCatV1.14B232,2013-03-08 23:57:00,
2013-03-08 17:02:00,40.6,22.0,29.81,SE,145,4.0,17.0,47,0.00,,,0.00,33,WeatherCatV1.14B232,2013-03-09 00:02:00,
2013-03-08 17:07:00,40.5,22.4,29.81,SSE,148,4.0,7.0,48,0.00,,,0.00,33,WeatherCatV1.14B232,2013-03-09 00:07:00,
2013-03-08 17:12:00,40.6,22.0,29.81,SSE,148,18.0,19.0,47,0.00,,,0.00,37,WeatherCatV1.14B232,2013-03-09 00:12:00,
2013-03-08 17:17:00,39.8,24.5,29.82,South,171,13.0,22.0,54,0.00,,,0.00,37,WeatherCatV1.14B232,2013-03-09 00:17:00,
2013-03-08 17:22:00,38.9,25.0,29.82,SSW,199,20.0,22.0,57,0.00,,,0.00,32,WeatherCatV1.14B232,2013-03-09 00:22:00,
2013-03-08 17:27:00,38.3,25.6,29.82,South,178,9.0,16.0,60,0.00,,,0.00,25,WeatherCatV1.14B232,2013-03-09 00:27:00,
2013-03-08 17:32:00,37.9,25.7,29.82,SSE,168,17.0,19.0,61,0.00,,,0.00,18,WeatherCatV1.14B232,2013-03-09 00:32:00,
2013-03-08 17:37:00,37.5,26.4,29.82,SW,216,15.0,15.0,64,0.00,,,0.00,7,WeatherCatV1.14B232,2013-03-09 00:37:00,
2013-03-08 17:42:00,37.5,26.1,29.82,South,174,6.0,11.0,63,0.00,,,0.00,0,WeatherCatV1.14B232,2013-03-09 00:42:00,
2013-03-08 17:47:00,37.6,25.4,29.83,South,191,2.0,12.0,61,0.00,,,0.00,0,WeatherCatV1.14B232,2013-03-09 00:47:00,
2013-03-08 17:52:00,37.8,26.4,29.83,WSW,253,6.0,11.0,63,0.00,,,0.00,0,WeatherCatV1.14B232,2013-03-09 00:52:00,
2013-03-08 17:57:00,37.5,27.9,29.83,WSW,243,2.0,4.0,68,0.00,,,0.00,0,WeatherCatV1.14B232,2013-03-09 00:57:00,
2013-03-08 18:02:00,36.8,28.3,29.83,WSW,243,2.0,2.0,71,0.00,,,0.00,0,WeatherCatV1.14B232,2013-03-09 01:02:00,
2013-03-08 18:07:00,36.3,28.5,29.83,WSW,243,5.0,5.0,73,0.00,,,0.00,0,WeatherCatV1.14B232,2013-03-09 01:07:00,
2013-03-08 18:12:00,35.9,28.8,29.83,WSW,254,5.0,7.0,75,0.00,,,0.00,0,WeatherCatV1.14B232,2013-03-09 01:12:00,
2013-03-08 18:17:00,35.3,28.5,29.82,WNW,284,5.0,7.0,76,0.00,,,0.00,0,WeatherCatV1.14B232,2013-03-09 01:17:00,
2013-03-08 18:22:00,35.0,28.2,29.82,WNW,284,4.0,5.0,76,0.00,,,0.00,0,WeatherCatV1.14B232,2013-03-09 01:22:00,
2013-03-08 18:27:00,34.9,28.4,29.82,WNW,282,3.0,5.0,77,0.00,,,0.00,0,WeatherCatV1.14B232,2013-03-09 01:27:00,
2013-03-08 18:32:00,34.7,28.6,29.82,WNW,284,2.0,3.0,78,0.00,,,0.00,0,WeatherCatV1.14B232,2013-03-09 01:32:00,
2013-03-08 18:37:00,34.6,28.1,29.82,WNW,282,1.0,4.0,77,0.00,,,0.00,0,WeatherCatV1.14B232,2013-03-09 01:37:00,
2013-03-08 18:42:00,34.6,27.8,29.82,WNW,282,0.0,3.0,76,0.00,,,0.00,0,WeatherCatV1.14B232,2013-03-09 01:42:00,
2013-03-08 18:47:00,34.6,27.8,29.82,WNW,282,0.0,0.0,76,0.00,,,0.00,0,WeatherCatV1.14B232,2013-03-09 01:47:00,
2013-03-08 18:52:00,34.6,28.1,29.82,WNW,282,0.0,0.0,77,0.00,,,0.00,0,WeatherCatV1.14B232,2013-03-09 01:52:00,
2013-03-08 18:57:00,34.4,28.0,29.82,SSW,195,0.0,5.0,77,0.00,,,0.00,0,WeatherCatV1.14B232,2013-03-09 01:57:00,
2013-03-08 19:02:00,34.4,27.3,29.82,South,184,4.0,5.0,75,0.00,,,0.00,0,WeatherCatV1.14B232,2013-03-09 02:02:00,
2013-03-08 19:07:00,34.7,26.9,29.82,SSE,161,5.0,7.0,73,0.00,,,0.00,0,WeatherCatV1.14B232,2013-03-09 02:07:00,
2013-03-08 19:12:00,34.9,27.5,29.82,ESE,113,3.0,7.0,74,0.00,,,0.00,0,WeatherCatV1.14B232,2013-03-09 02:12:00,
2013-03-08 19:17:00,34.7,27.6,29.82,ESE,112,3.0,6.0,75,0.00,,,0.00,0,WeatherCatV1.14B232,2013-03-09 02:17:00,
2013-03-08 19:22:00,34.6,28.1,29.82,ESE,112,0.0,0.0,77,0.00,,,0.00,0,WeatherCatV1.14B232,2013-03-09 02:22:00,
2013-03-08 19:27:00,34.3,28.8,29.82,ESE,112,0.0,0.0,80,0.00,,,0.00,0,WeatherCatV1.14B232,2013-03-09 02:27:00,
2013-03-08 19:32:00,33.8,28.6,29.82,ESE,112,6.0,9.0,81,0.00,,,0.00,0,WeatherCatV1.14B232,2013-03-09 02:32:00,
2013-03-08 19:37:00,33.4,29.1,29.82,ESE,112,4.0,7.0,84,0.00,,,0.00,0,WeatherCatV1.14B232,2013-03-09 02:37:00,
2013-03-08 19:42:00,32.9,29.2,29.82,ESE,112,1.0,3.0,86,0.00,,,0.00,0,WeatherCatV1.14B232,2013-03-09 02:42:00,
2013-03-08 19:47:00,32.7,29.3,29.82,ESE,112,0.0,1.0,87,0.00,,,0.00,0,WeatherCatV1.14B232,2013-03-09 02:47:00,
2013-03-08 19:52:00,32.5,29.3,29.82,ESE,112,0.0,0.0,88,0.00,,,0.00,0,WeatherCatV1.14B232,2013-03-09 02:52:00,
2013-03-08 19:57:00,32.5,29.3,29.82,ESE,112,0.0,0.0,88,0.00,,,0.00,0,WeatherCatV1.14B232,2013-03-09 02:57:00,
2013-03-08 20:02:00,32.4,29.2,29.82,ESE,112,0.0,0.0,88,0.00,,,0.00,0,WeatherCatV1.14B232,2013-03-09 03:02:00,
2013-03-08 20:05:00,32.4,29.2,29.82,ESE,112,0.0,0.0,88,0.00,,,0.00,0,WeatherCatV1.14B232,2013-03-09 03:05:00,
2013-03-08 20:07:00,32.2,29.3,29.82,ESE,112,0.0,0.0,89,0.00,,,0.00,0,WeatherCatV1.14B232,2013-03-09 03:07:00,
2013-03-08 20:10:00,32.4,29.2,29.82,ESE,112,0.0,0.0,88,0.00,,,0.00,0,WeatherCatV1.14B232,2013-03-09 03:10:00,
2013-03-08 20:15:00,32.4,29.2,29.82,ESE,112,0.0,0.0,88,0.00,,,0.00,0,WeatherCatV1.14B232,2013-03-09 03:15:00,
2013-03-08 20:20:00,32.2,29.3,29.82,ESE,112,0.0,0.0,89,0.00,,,0.00,0,WeatherCatV1.14B232,2013-03-09 03:20:00,
2013-03-08 20:25:00,32.2,29.3,29.82,ESE,112,0.0,0.0,89,0.00,,,0.00,0,WeatherCatV1.14B232,2013-03-09 03:25:00,
2013-03-08 20:30:00,32.2,29.3,29.82,ESE,112,0.0,0.0,89,0.00,,,0.00,0,WeatherCatV1.14B232,2013-03-09 03:30:00,
2013-03-08 20:35:00,32.1,29.5,29.81,ESE,112,0.0,0.0,90,0.00,,,0.00,0,WeatherCatV1.14B232,2013-03-09 03:35:00,
2013-03-08 20:40:00,32.1,29.5,29.81,ESE,112,0.0,0.0,90,0.00,,,0.00,0,WeatherCatV1.14B232,2013-03-09 03:40:00,
2013-03-08 20:45:00,32.1,29.5,29.81,ESE,112,0.0,0.0,90,0.00,,,0.00,0,WeatherCatV1.14B232,2013-03-09 03:45:00,
2013-03-08 20:50:00,31.9,29.6,29.80,ESE,112,0.0,0.0,91,0.00,,,0.00,0,WeatherCatV1.14B232,2013-03-09 03:50:00,
2013-03-08 20:55:00,31.9,29.6,29.80,ESE,112,0.0,0.0,91,0.00,,,0.00,0,WeatherCatV1.14B232,2013-03-09 03:55:00,
2013-03-08 21:00:00,31.9,29.6,29.80,ESE,112,0.0,0.0,91,0.00,,,0.00,0,WeatherCatV1.14B232,2013-03-09 04:00:00,
2013-03-08 21:05:00,31.9,29.6,29.80,ESE,112,0.0,0.0,91,0.00,,,0.00,0,WeatherCatV1.14B232,2013-03-09 04:05:00,
2013-03-08 21:10:00,31.9,29.6,29.80,ESE,112,0.0,0.0,91,0.00,,,0.00,0,WeatherCatV1.14B232,2013-03-09 04:10:00,
2013-03-08 21:15:00,31.9,29.6,29.80,ESE,112,0.0,0.0,91,0.00,,,0.00,0,WeatherCatV1.14B232,2013-03-09 04:15:00,
2013-03-08 21:20:00,31.8,29.5,29.81,ESE,112,0.0,0.0,91,0.00,,,0.00,0,WeatherCatV1.14B232,2013-03-09 04:20:00,
2013-03-08 21:25:00,31.8,29.5,29.81,ESE,112,0.0,0.0,91,0.00,,,0.00,0,WeatherCatV1.14B232,2013-03-09 04:25:00,
2013-03-08 21:30:00,31.8,29.5,29.81,ESE,112,0.0,0.0,91,0.00,,,0.00,0,WeatherCatV1.14B232,2013-03-09 04:30:00,
2013-03-08 21:35:00,31.5,29.2,29.80,NNE,22,0.0,8.0,91,0.00,,,0.00,0,WeatherCatV1.14B232,2013-03-09 04:35:00,
2013-03-08 21:40:00,31.5,29.2,29.80,NNE,22,0.0,8.0,91,0.00,,,0.00,0,WeatherCatV1.14B232,2013-03-09 04:40:00,
2013-03-08 21:45:00,31.5,29.2,29.80,NNE,22,0.0,8.0,91,0.00,,,0.00,0,WeatherCatV1.14B232,2013-03-09 04:45:00,
2013-03-08 21:50:00,31.2,28.6,29.79,North,0,3.0,8.0,90,0.00,,,0.00,0,WeatherCatV1.14B232,2013-03-09 04:50:00,
2013-03-08 21:55:00,31.2,28.6,29.79,North,0,3.0,8.0,90,0.00,,,0.00,0,WeatherCatV1.14B232,2013-03-09 04:55:00,
2013-03-08 22:00:00,31.2,28.6,29.79,North,0,3.0,8.0,90,0.00,,,0.00,0,WeatherCatV1.14B232,2013-03-09 05:00:00,
2013-03-08 22:05:00,30.4,28.1,29.79,South,180,3.0,7.0,91,0.00,,,0.00,0,WeatherCatV1.14B232,2013-03-09 05:05:00,
2013-03-08 22:10:00,30.4,28.1,29.79,South,180,3.0,7.0,91,0.00,,,0.00,0,WeatherCatV1.14B232,2013-03-09 05:10:00,
2013-03-08 22:15:00,30.4,28.1,29.79,South,180,3.0,7.0,91,0.00,,,0.00,0,WeatherCatV1.14B232,2013-03-09 05:15:00,
2013-03-08 22:20:00,30.0,27.7,29.78,South,180,1.0,6.0,91,0.00,,,0.00,0,WeatherCatV1.14B232,2013-03-09 05:20:00,
2013-03-08 22:25:00,30.0,27.7,29.78,South,180,1.0,6.0,91,0.00,,,0.00,0,WeatherCatV1.14B232,2013-03-09 05:25:00,
2013-03-08 22:30:00,30.0,27.7,29.78,South,180,1.0,6.0,91,0.00,,,0.00,0,WeatherCatV1.14B232,2013-03-09 05:30:00,
2013-03-08 22:35:00,29.7,27.1,29.76,South,180,1.0,3.0,90,0.00,,,0.00,0,WeatherCatV1.14B232,2013-03-09 05:35:00,
2013-03-08 22:40:00,29.7,27.1,29.76,South,180,1.0,3.0,90,0.00,,,0.00,0,WeatherCatV1.14B232,2013-03-09 05:40:00,
2013-03-08 22:45:00,29.7,27.1,29.76,South,180,1.0,3.0,90,0.00,,,0.00,0,WeatherCatV1.14B232,2013-03-09 05:45:00,
2013-03-08 22:50:00,28.5,25.7,29.76,South,180,0.0,3.0,89,0.00,,,0.00,0,WeatherCatV1.14B232,2013-03-09 05:50:00,
2013-03-08 22:55:00,28.5,25.7,29.76,South,180,0.0,3.0,89,0.00,,,0.00,0,WeatherCatV1.14B232,2013-03-09 05:55:00,
2013-03-08 23:00:00,28.5,25.7,29.76,South,180,0.0,3.0,89,0.00,,,0.00,0,WeatherCatV1.14B232,2013-03-09 06:00:00,
2013-03-08 23:05:00,29.1,25.4,29.76,SSE,158,3.0,14.0,86,0.00,,,0.00,0,WeatherCatV1.14B232,2013-03-09 06:05:00,
2013-03-08 23:10:00,29.1,25.4,29.76,SSE,158,3.0,14.0,86,0.00,,,0.00,0,WeatherCatV1.14B232,2013-03-09 06:10:00,
2013-03-08 23:15:00,29.1,25.4,29.76,SSE,158,3.0,14.0,86,0.00,,,0.00,0,WeatherCatV1.14B232,2013-03-09 06:15:00,
2013-03-08 23:20:00,29.0,25.1,29.76,SE,135,1.0,6.0,85,0.00,,,0.00,0,WeatherCatV1.14B232,2013-03-09 06:20:00,
2013-03-08 23:25:00,29.0,25.1,29.76,SE,135,1.0,6.0,85,0.00,,,0.00,0,WeatherCatV1.14B232,2013-03-09 06:25:00,
2013-03-08 23:30:00,28.1,24.2,29.76,SE,135,1.0,3.0,85,0.00,,,0.00,0,WeatherCatV1.14B232,2013-03-09 06:30:00,
2013-03-08 23:35:00,28.1,24.2,29.76,SE,135,1.0,3.0,85,0.00,,,0.00,0,WeatherCatV1.14B232,2013-03-09 06:35:00,
2013-03-08 23:40:00,28.1,24.2,29.76,SE,135,1.0,3.0,85,0.00,,,0.00,0,WeatherCatV1.14B232,2013-03-09 06:40:00,
2013-03-08 23:45:00,27.0,23.1,29.76,SE,135,1.0,5.0,85,0.00,,,0.00,0,WeatherCatV1.14B232,2013-03-09 06:45:00,
2013-03-08 23:50:00,27.0,23.1,29.76,SE,135,1.0,5.0,85,0.00,,,0.00,0,WeatherCatV1.14B232,2013-03-09 06:50:00,
2013-03-08 23:55:00,27.0,23.1,29.76,SE,135,1.0,5.0,85,0.00,,,0.00,0,WeatherCatV1.14B232,2013-03-09 06:55:00,